Aviation Digital Data Service (ADDS)

Output produced by TAFs form (1132 UTC 19 January 2018)
found at http://www.aviationweather.gov/adds/tafs/
 
RJOO 191100Z 30003KT 9999 FEW020 06/M01 Q1018 RMK 1CU020 A3008
TAF RJOO 191106Z 1912/2018 32004KT 9999 FEW025 
     BECMG 2000/2003 22005KT 
     BECMG 2006/2009 32004KT